Time;durP1;ratioP1;P1;durP2;ratioP2;P2;SDS_P1;SDS_P2;PMS_P1;PMS_P2;Temp;Humidity;BMP_temperature;BMP_pressure;BME280_temperature;BME280_humidity;BME280_pressure;Samples;Min_cycle;Max_cycle;Signal;HPM_P1;HPM_P2
2023/08/06 00:00:21;;;;;;;0.53;0.53;;;15.40;91.90;;;;;;4963995;28;20110;-83
2023/08/06 00:02:47;;;;;;;0.00;0.00;;;15.40;91.70;;;;;;4963961;28;20774;-84
2023/08/06 00:05:12;;;;;;;0.40;0.40;;;15.40;91.60;;;;;;4963795;28;20030;-83
2023/08/06 00:07:38;;;;;;;0.10;0.10;;;15.30;91.60;;;;;;4964058;28;20158;-83
2023/08/06 00:10:04;;;;;;;0.87;0.53;;;15.30;91.60;;;;;;4964068;28;20061;-83
2023/08/06 00:12:30;;;;;;;0.13;0.13;;;15.20;91.80;;;;;;4963763;28;20054;-83
2023/08/06 00:14:56;;;;;;;0.20;0.20;;;15.20;91.60;;;;;;4964449;28;20066;-84
2023/08/06 00:17:22;;;;;;;0.23;0.23;;;15.20;91.60;;;;;;4961954;28;20891;-83
2023/08/06 00:19:47;;;;;;;0.67;0.67;;;15.20;91.60;;;;;;4972077;28;20606;-83
2023/08/06 00:22:13;;;;;;;0.00;0.00;;;15.20;92.10;;;;;;4962936;28;20090;-83
2023/08/06 00:24:39;;;;;;;0.00;0.00;;;15.20;92.00;;;;;;4961801;28;20031;-83
2023/08/06 00:27:05;;;;;;;2.53;0.93;;;15.20;92.00;;;;;;4964899;28;20027;-83
2023/08/06 00:29:30;;;;;;;2.33;0.47;;;15.20;92.30;;;;;;4963652;28;20037;-84
2023/08/06 00:31:56;;;;;;;0.23;0.23;;;15.10;92.60;;;;;;4963743;28;20035;-83
2023/08/06 00:34:22;;;;;;;0.03;0.03;;;15.20;92.70;;;;;;4963524;28;20037;-83
2023/08/06 00:36:47;;;;;;;0.93;0.83;;;15.20;92.60;;;;;;4963180;28;20121;-83
2023/08/06 00:39:13;;;;;;;0.10;0.10;;;15.10;93.50;;;;;;4963980;28;20038;-83
2023/08/06 00:41:39;;;;;;;0.10;0.10;;;15.30;92.90;;;;;;4963757;28;20027;-82
2023/08/06 00:44:05;;;;;;;0.00;0.00;;;15.30;92.80;;;;;;4964372;28;20035;-83
2023/08/06 00:46:33;;;;;;;0.20;0.20;;;15.30;92.50;;;;;;4963920;28;20023;-83
2023/08/06 00:48:59;;;;;;;0.20;0.20;;;15.20;92.50;;;;;;4966519;28;20030;-83
2023/08/06 00:51:26;;;;;;;0.57;0.57;;;15.20;92.80;;;;;;4965591;28;20023;-83
2023/08/06 00:53:53;;;;;;;0.15;0.15;;;15.10;92.80;;;;;;4962786;28;20042;-83
2023/08/06 00:56:19;;;;;;;0.10;0.10;;;15.00;92.30;;;;;;4967331;28;20073;-82
2023/08/06 00:58:46;;;;;;;0.10;0.10;;;15.00;92.50;;;;;;4962983;28;20031;-83
2023/08/06 01:01:11;;;;;;;;;;;15.10;92.50;;;;;;4964123;28;20475;-83
2023/08/06 01:03:37;;;;;;;0.83;0.83;;;15.10;93.00;;;;;;4967731;28;19917;-82
2023/08/06 01:06:03;;;;;;;0.30;0.30;;;15.00;93.20;;;;;;4962521;28;20027;-83
2023/08/06 01:08:38;;;;;;;0.00;0.00;;;15.10;92.80;;;;;;4964388;28;20103;-83
2023/08/06 01:11:13;;;;;;;0.15;0.15;;;15.10;93.00;;;;;;4957766;28;20365;-83
2023/08/06 01:13:54;;;;;;;1.13;0.98;;;15.20;92.70;;;;;;4962114;28;20521;-84
2023/08/06 01:16:21;;;;;;;9.30;1.65;;;15.00;92.80;;;;;;4967068;28;20027;-82
2023/08/06 01:18:49;;;;;;;0.00;0.00;;;15.00;93.10;;;;;;4968665;28;20034;-83
2023/08/06 01:21:18;;;;;;;0.30;0.30;;;14.90;93.20;;;;;;4975658;28;20094;-83
2023/08/06 01:23:46;;;;;;;1.00;1.00;;;14.90;93.50;;;;;;4967343;28;20115;-83
2023/08/06 01:26:22;;;;;;;0.73;0.73;;;15.00;93.80;;;;;;4965976;28;20034;-83
2023/08/06 01:29:02;;;;;;;0.63;0.63;;;14.90;94.00;;;;;;4967208;28;20030;-83
2023/08/06 01:31:31;;;;;;;0.20;0.20;;;14.90;94.60;;;;;;4965434;28;20038;-83
2023/08/06 01:34:00;;;;;;;0.20;0.20;;;14.90;94.50;;;;;;4980772;28;20030;-83
2023/08/06 01:36:28;;;;;;;0.90;0.80;;;14.90;94.80;;;;;;4966702;28;20023;-83
2023/08/06 01:38:53;;;;;;;0.60;0.57;;;14.90;95.10;;;;;;4965074;28;20027;-82
2023/08/06 01:41:19;;;;;;;3.93;1.60;;;14.80;95.20;;;;;;4966523;28;20549;-82
2023/08/06 01:43:45;;;;;;;0.83;0.83;;;14.80;95.30;;;;;;4966938;28;20848;-83
2023/08/06 01:46:11;;;;;;;0.77;0.43;;;14.80;95.60;;;;;;4966891;28;20124;-83
2023/08/06 01:48:37;;;;;;;0.10;0.10;;;14.80;95.20;;;;;;4967498;28;20026;-82
2023/08/06 01:51:06;;;;;;;0.00;0.00;;;14.80;95.00;;;;;;4970774;28;20090;-83
2023/08/06 01:53:32;;;;;;;2.30;0.63;;;14.70;95.40;;;;;;4966595;28;20050;-84
2023/08/06 01:55:58;;;;;;;0.00;0.00;;;14.70;95.20;;;;;;4969473;28;20022;-83
2023/08/06 01:58:24;;;;;;;0.00;0.00;;;14.70;95.00;;;;;;4966406;28;20043;-84
2023/08/06 02:00:49;;;;;;;0.10;0.10;;;14.70;94.60;;;;;;4966294;28;20034;-84
2023/08/06 02:03:15;;;;;;;0.20;0.20;;;14.70;94.50;;;;;;4966186;28;20093;-84
2023/08/06 02:05:41;;;;;;;0.10;0.10;;;14.70;94.40;;;;;;4966284;28;20085;-84
2023/08/06 02:08:07;;;;;;;0.60;0.43;;;14.70;94.50;;;;;;4963316;28;20608;-84
2023/08/06 02:10:33;;;;;;;7.20;2.73;;;14.80;94.10;;;;;;4965245;28;20027;-84
2023/08/06 02:12:58;;;;;;;0.63;0.63;;;14.80;93.50;;;;;;4966235;28;20557;-84
2023/08/06 02:15:24;;;;;;;0.17;0.17;;;14.80;93.30;;;;;;4960919;28;20030;-84
2023/08/06 02:17:50;;;;;;;3.10;1.40;;;14.90;92.80;;;;;;4965857;28;20031;-86
2023/08/06 02:20:16;;;;;;;0.00;0.00;;;14.80;92.90;;;;;;4971693;28;20086;-84
2023/08/06 02:22:41;;;;;;;0.52;0.52;;;14.80;92.90;;;;;;4966470;28;20070;-84
2023/08/06 02:25:08;;;;;;;;;;;14.80;92.90;;;;;;4965344;28;20058;-84
2023/08/06 02:27:34;;;;;;;0.63;0.57;;;14.80;92.90;;;;;;4962758;28;19918;-81
2023/08/06 02:29:59;;;;;;;1.33;1.23;;;14.90;92.80;;;;;;4963962;28;20078;-81
2023/08/06 02:32:25;;;;;;;5.33;2.23;;;14.80;92.70;;;;;;4965077;28;20038;-81
2023/08/06 02:34:51;;;;;;;0.50;0.50;;;14.70;92.80;;;;;;4962987;28;20043;-80
2023/08/06 02:37:16;;;;;;;0.00;0.00;;;14.60;92.70;;;;;;4963027;28;20090;-80
2023/08/06 02:39:43;;;;;;;0.00;0.00;;;14.60;93.40;;;;;;4963038;28;20035;-81
2023/08/06 02:42:08;;;;;;;0.30;0.30;;;14.50;93.30;;;;;;4964036;28;20110;-80
2023/08/06 02:44:35;;;;;;;0.00;0.00;;;14.60;93.30;;;;;;4964983;28;20158;-82
2023/08/06 02:47:01;;;;;;;0.00;0.00;;;14.60;93.50;;;;;;4962810;28;20027;-82
2023/08/06 02:49:26;;;;;;;0.10;0.10;;;14.60;93.50;;;;;;4970864;28;20037;-81
2023/08/06 02:51:52;;;;;;;0.90;0.90;;;14.50;93.30;;;;;;4966140;28;20097;-82
2023/08/06 02:54:18;;;;;;;0.00;0.00;;;14.50;93.40;;;;;;4965235;28;20041;-82
2023/08/06 02:56:45;;;;;;;5.65;0.32;;;14.50;93.90;;;;;;4963669;28;20085;-81
2023/08/06 02:59:11;;;;;;;0.22;0.22;;;14.60;93.80;;;;;;4965342;28;20490;-83
2023/08/06 03:01:37;;;;;;;0.10;0.10;;;14.50;93.90;;;;;;4965218;28;20029;-84
2023/08/06 03:04:03;;;;;;;0.00;0.00;;;14.50;93.70;;;;;;4965330;28;20042;-84
2023/08/06 03:06:28;;;;;;;0.30;0.30;;;14.60;93.70;;;;;;4964940;28;20115;-82
2023/08/06 03:08:54;;;;;;;0.00;0.00;;;14.50;93.70;;;;;;4964807;28;20035;-83
2023/08/06 03:11:20;;;;;;;0.00;0.00;;;14.50;94.10;;;;;;4964309;28;20027;-80
2023/08/06 03:13:47;;;;;;;3.33;1.65;;;14.50;94.10;;;;;;4964630;28;20078;-82
2023/08/06 03:16:13;;;;;;;0.38;0.38;;;14.50;94.40;;;;;;4964775;28;20038;-81
2023/08/06 03:18:39;;;;;;;0.30;0.30;;;14.50;94.40;;;;;;4964976;28;20030;-81
2023/08/06 03:21:05;;;;;;;0.00;0.00;;;14.40;94.80;;;;;;4968328;28;20426;-81
2023/08/06 03:23:30;;;;;;;0.20;0.20;;;14.40;94.90;;;;;;4965047;28;20086;-81
2023/08/06 03:25:56;;;;;;;10.73;0.60;;;14.40;94.90;;;;;;4964309;28;20399;-80
2023/08/06 03:28:22;;;;;;;0.00;0.00;;;14.50;94.50;;;;;;4966831;28;20023;-84
2023/08/06 03:30:58;;;;;;;2.80;0.73;;;14.50;94.70;;;;;;4965253;28;20354;-81
2023/08/06 03:33:24;;;;;;;0.00;0.00;;;14.30;95.10;;;;;;4964191;28;20046;-82
2023/08/06 03:35:49;;;;;;;0.30;0.30;;;14.30;95.40;;;;;;4964209;28;20039;-84
2023/08/06 03:38:15;;;;;;;0.05;0.05;;;14.50;95.10;;;;;;4964769;28;20027;-82
2023/08/06 03:40:41;;;;;;;0.37;0.37;;;14.50;95.10;;;;;;4964893;28;20030;-82
2023/08/06 03:43:07;;;;;;;1.60;1.13;;;14.50;95.20;;;;;;4964465;28;20134;-82
2023/08/06 03:45:32;;;;;;;0.10;0.10;;;14.50;95.30;;;;;;4964080;28;20026;-83
2023/08/06 03:47:58;;;;;;;0.75;0.40;;;14.50;95.20;;;;;;4964301;28;20550;-85
2023/08/06 03:50:23;;;;;;;0.43;0.43;;;14.50;95.10;;;;;;4969905;28;20554;-83
2023/08/06 03:52:49;;;;;;;0.73;0.73;;;14.50;95.40;;;;;;4964262;28;20768;-83
2023/08/06 03:55:15;;;;;;;0.00;0.00;;;14.50;95.40;;;;;;4962974;28;20039;-81
2023/08/06 03:57:41;;;;;;;13.15;1.30;;;14.50;95.50;;;;;;4964407;28;20031;-82
2023/08/06 04:00:07;;;;;;;3.73;1.30;;;14.50;95.30;;;;;;4960365;28;20062;-82
2023/08/06 04:02:33;;;;;;;0.00;0.00;;;14.50;95.50;;;;;;4965429;28;20035;-82
2023/08/06 04:04:59;;;;;;;0.20;0.20;;;14.40;95.60;;;;;;4964353;28;20445;-82
2023/08/06 04:07:25;;;;;;;1.07;0.63;;;14.30;96.10;;;;;;4964405;28;20387;-82
2023/08/06 04:09:57;;;;;;;0.00;0.00;;;14.30;96.20;;;;;;4963738;28;20101;-81
2023/08/06 04:12:23;;;;;;;0.10;0.10;;;14.40;96.10;;;;;;4963929;28;20101;-81
2023/08/06 04:14:49;;;;;;;0.00;0.00;;;14.40;96.10;;;;;;4964712;28;20117;-82
2023/08/06 04:17:15;;;;;;;0.20;0.20;;;14.40;96.10;;;;;;4966759;28;20060;-81
2023/08/06 04:19:41;;;;;;;0.10;0.10;;;14.40;96.00;;;;;;4966978;28;20033;-82
2023/08/06 04:22:07;;;;;;;0.87;0.87;;;14.30;96.10;;;;;;4963986;28;20074;-80
2023/08/06 04:24:32;;;;;;;27.02;2.00;;;14.30;96.20;;;;;;4963439;28;20043;-83
2023/08/06 04:26:58;;;;;;;0.00;0.00;;;14.30;96.00;;;;;;4962987;28;20110;-82
2023/08/06 04:29:24;;;;;;;1.73;1.00;;;14.30;96.00;;;;;;4966569;28;20031;-82
2023/08/06 04:31:50;;;;;;;0.00;0.00;;;14.20;96.20;;;;;;4963366;28;20065;-82
2023/08/06 04:34:15;;;;;;;3.10;1.13;;;14.10;96.40;;;;;;4963590;28;20027;-81
2023/08/06 04:36:41;;;;;;;2.00;1.57;;;14.00;96.80;;;;;;4962701;28;20497;-81
2023/08/06 04:39:07;;;;;;;0.53;0.53;;;14.00;96.80;;;;;;4963676;28;20580;-80
2023/08/06 04:41:32;;;;;;;0.00;0.00;;;14.10;96.30;;;;;;4963086;28;20570;-81
2023/08/06 04:43:58;;;;;;;0.00;0.00;;;14.30;96.40;;;;;;4966013;28;20105;-80
2023/08/06 04:46:24;;;;;;;0.10;0.10;;;14.20;96.10;;;;;;4962169;28;20042;-81
2023/08/06 04:48:49;;;;;;;0.10;0.10;;;14.10;96.50;;;;;;4968561;28;20095;-80
2023/08/06 04:51:15;;;;;;;0.00;0.00;;;14.10;96.20;;;;;;4970816;28;20030;-80
2023/08/06 04:53:41;;;;;;;2.60;2.38;;;14.00;96.70;;;;;;4967310;28;20041;-80
2023/08/06 04:56:06;;;;;;;0.03;0.03;;;13.90;96.70;;;;;;4967167;28;20447;-82
2023/08/06 04:58:32;;;;;;;2.13;0.83;;;14.00;96.80;;;;;;4967279;28;20027;-82
2023/08/06 05:00:58;;;;;;;0.00;0.00;;;14.10;96.60;;;;;;4966860;28;20054;-81
2023/08/06 05:03:23;;;;;;;3.00;0.40;;;13.90;96.70;;;;;;4971873;28;20054;-81
2023/08/06 05:05:50;;;;;;;0.00;0.00;;;13.90;96.60;;;;;;4967041;28;20084;-80
2023/08/06 05:08:16;;;;;;;0.00;0.00;;;14.00;96.70;;;;;;4967134;28;20022;-80
2023/08/06 05:10:44;;;;;;;0.10;0.10;;;14.10;96.50;;;;;;4971067;28;20026;-80
2023/08/06 05:13:10;;;;;;;0.63;0.52;;;14.10;95.90;;;;;;4969319;28;20035;-80
2023/08/06 05:15:35;;;;;;;0.00;0.00;;;14.30;95.60;;;;;;4966789;28;20034;-80
2023/08/06 05:18:01;;;;;;;0.10;0.10;;;14.20;95.70;;;;;;4968451;28;20027;-80
2023/08/06 05:20:27;;;;;;;0.17;0.17;;;14.20;95.50;;;;;;4969360;28;20505;-81
2023/08/06 05:22:52;;;;;;;0.00;0.00;;;14.30;95.40;;;;;;4966779;28;20133;-81
2023/08/06 05:25:18;;;;;;;0.20;0.20;;;14.30;95.10;;;;;;4966817;28;20030;-81
2023/08/06 05:27:44;;;;;;;2.13;1.90;;;14.10;95.70;;;;;;4963476;28;20045;-80
2023/08/06 05:30:10;;;;;;;0.28;0.28;;;13.90;96.00;;;;;;4965766;28;20026;-81
2023/08/06 05:32:36;;;;;;;0.00;0.00;;;14.00;96.50;;;;;;4966378;28;20062;-80
2023/08/06 05:35:01;;;;;;;0.40;0.40;;;14.20;96.00;;;;;;4965272;28;20173;-81
2023/08/06 05:37:27;;;;;;;0.00;0.00;;;14.50;95.10;;;;;;4967185;28;20114;-80
2023/08/06 05:39:53;;;;;;;7.50;1.87;;;14.60;95.20;;;;;;4965244;28;20069;-80
2023/08/06 05:42:18;;;;;;;0.77;0.77;;;14.60;95.00;;;;;;4969397;28;20577;-80
2023/08/06 05:44:44;;;;;;;0.00;0.00;;;14.80;94.60;;;;;;4966285;28;20042;-80
2023/08/06 05:47:10;;;;;;;0.10;0.10;;;14.80;94.50;;;;;;4965933;28;20023;-81
2023/08/06 05:49:36;;;;;;;0.10;0.10;;;14.90;94.20;;;;;;4971182;28;20492;-80
2023/08/06 05:52:05;;;;;;;0.00;0.00;;;15.70;92.80;;;;;;4966269;28;20522;-80
2023/08/06 05:54:32;;;;;;;0.40;0.40;;;18.30;85.00;;;;;;4969830;28;20037;-80
2023/08/06 05:56:57;;;;;;;0.65;0.65;;;18.50;80.60;;;;;;4966693;28;20038;-80
2023/08/06 05:59:23;;;;;;;0.07;0.07;;;19.10;77.90;;;;;;4965742;28;20034;-80
2023/08/06 06:01:49;;;;;;;0.20;0.20;;;17.90;81.50;;;;;;4966642;28;20120;-80
2023/08/06 06:04:14;;;;;;;0.00;0.00;;;17.30;83.00;;;;;;4970210;28;20041;-80
2023/08/06 06:06:41;;;;;;;0.00;0.00;;;16.90;85.20;;;;;;4965798;28;20039;-81
2023/08/06 06:09:07;;;;;;;;;;;16.80;83.70;;;;;;4964285;28;20030;-80
2023/08/06 06:11:32;;;;;;;0.00;0.00;;;16.10;86.30;;;;;;4965895;28;19910;-80
2023/08/06 06:13:58;;;;;;;0.20;0.20;;;15.70;88.90;;;;;;4966286;28;20038;-80
2023/08/06 06:16:24;;;;;;;0.10;0.10;;;15.30;90.00;;;;;;4969925;28;20110;-79
2023/08/06 06:18:50;;;;;;;0.10;0.10;;;15.20;90.30;;;;;;4965656;28;20102;-80
2023/08/06 06:21:15;;;;;;;0.57;0.57;;;15.10;90.70;;;;;;4965402;28;20055;-79
2023/08/06 06:23:41;;;;;;;0.00;0.00;;;15.40;90.20;;;;;;4965752;28;20565;-80
2023/08/06 06:26:07;;;;;;;0.20;0.20;;;15.30;90.00;;;;;;4965955;28;20493;-80
2023/08/06 06:28:32;;;;;;;0.93;0.40;;;15.10;90.00;;;;;;4967861;28;20109;-79
2023/08/06 06:31:01;;;;;;;0.10;0.10;;;15.00;90.10;;;;;;4965992;28;20645;-79
2023/08/06 06:33:27;;;;;;;0.10;0.10;;;15.30;90.00;;;;;;4965326;28;20030;-79
2023/08/06 06:35:53;;;;;;;0.00;0.00;;;15.30;89.70;;;;;;4964059;28;20090;-79
2023/08/06 06:38:19;;;;;;;0.00;0.00;;;15.20;89.80;;;;;;4966377;28;20500;-79
2023/08/06 06:40:53;;;;;;;0.00;0.00;;;15.10;90.20;;;;;;4965104;28;20034;-79
2023/08/06 06:43:19;;;;;;;0.00;0.00;;;15.30;89.50;;;;;;4967276;28;20116;-78
2023/08/06 06:45:45;;;;;;;0.10;0.10;;;15.70;88.90;;;;;;4964981;28;20035;-79
2023/08/06 06:48:10;;;;;;;0.53;0.53;;;17.90;85.30;;;;;;4965594;28;20034;-80
2023/08/06 06:50:36;;;;;;;0.00;0.00;;;22.50;69.70;;;;;;4970726;28;20027;-80
2023/08/06 06:53:02;;;;;;;0.00;0.00;;;24.60;60.60;;;;;;4965359;28;20034;-81
2023/08/06 06:55:28;;;;;;;0.00;0.00;;;25.40;57.80;;;;;;4965160;28;20101;-80
2023/08/06 06:57:53;;;;;;;0.20;0.20;;;25.50;56.50;;;;;;4962613;28;20035;-82
2023/08/06 07:00:19;;;;;;;0.10;0.10;;;26.60;54.60;;;;;;4965151;28;20353;-81
2023/08/06 07:02:45;;;;;;;0.00;0.00;;;23.00;59.60;;;;;;4963463;28;20105;-81
2023/08/06 07:05:10;;;;;;;0.00;0.00;;;23.70;59.80;;;;;;4964514;28;20042;-80
2023/08/06 07:07:37;;;;;;;0.00;0.00;;;22.10;63.10;;;;;;4969700;28;20031;-79
2023/08/06 07:10:04;;;;;;;0.43;0.22;;;20.00;67.30;;;;;;4964687;28;20183;-80
2023/08/06 07:12:30;;;;;;;1.55;1.42;;;19.20;70.50;;;;;;4963294;28;20038;-80
2023/08/06 07:14:56;;;;;;;0.07;0.07;;;18.70;71.90;;;;;;4964526;28;20521;-79
2023/08/06 07:17:21;;;;;;;0.27;0.27;;;17.80;74.00;;;;;;4964967;28;20074;-81
2023/08/06 07:19:47;;;;;;;5.93;0.90;;;17.20;76.10;;;;;;4960634;28;20027;-80
2023/08/06 07:22:13;;;;;;;0.97;0.73;;;17.20;76.00;;;;;;4961625;28;20046;-80
2023/08/06 07:24:39;;;;;;;0.00;0.00;;;17.10;76.00;;;;;;4963331;28;20168;-80
2023/08/06 07:27:05;;;;;;;0.33;0.33;;;17.10;77.10;;;;;;4963074;28;20042;-80
2023/08/06 07:29:30;;;;;;;0.00;0.00;;;17.70;76.90;;;;;;4964679;28;20031;-81
2023/08/06 07:31:56;;;;;;;0.50;0.30;;;18.10;76.00;;;;;;4964309;28;20031;-80
2023/08/06 07:34:22;;;;;;;0.00;0.00;;;18.00;75.10;;;;;;4963335;28;20046;-80
2023/08/06 07:36:52;;;;;;;0.43;0.43;;;17.60;75.90;;;;;;4963790;28;20088;-80
2023/08/06 07:39:17;;;;;;;0.10;0.10;;;17.70;76.80;;;;;;4962818;28;20038;-80
2023/08/06 07:41:45;;;;;;;0.10;0.10;;;17.60;77.00;;;;;;4952169;28;20062;-80
2023/08/06 07:44:11;;;;;;;0.25;0.25;;;16.90;77.50;;;;;;4962820;28;20034;-80
2023/08/06 07:46:38;;;;;;;0.10;0.10;;;17.30;79.20;;;;;;4962788;28;20085;-80
2023/08/06 07:49:03;;;;;;;0.00;0.00;;;17.60;78.20;;;;;;4965895;28;20037;-79
2023/08/06 07:51:29;;;;;;;0.60;0.60;;;17.50;77.30;;;;;;4962900;28;20042;-79
2023/08/06 07:53:55;;;;;;;0.00;0.00;;;17.10;77.30;;;;;;4963248;28;20059;-80
2023/08/06 07:56:21;;;;;;;0.03;0.03;;;17.30;77.20;;;;;;4961727;28;20034;-80
2023/08/06 07:58:47;;;;;;;0.10;0.10;;;17.50;76.00;;;;;;4963267;28;20518;-80
2023/08/06 08:01:12;;;;;;;0.00;0.00;;;17.60;75.60;;;;;;4962814;28;20025;-79
2023/08/06 08:03:38;;;;;;;10.13;1.13;;;18.10;72.30;;;;;;4963409;28;20684;-80
2023/08/06 08:06:04;;;;;;;7.47;1.13;;;18.10;71.90;;;;;;4962633;28;20117;-79
2023/08/06 08:08:30;;;;;;;2.90;0.93;;;19.50;70.60;;;;;;4963070;28;20077;-79
2023/08/06 08:10:55;;;;;;;0.00;0.00;;;19.80;68.40;;;;;;4962384;28;20030;-79
2023/08/06 08:13:21;;;;;;;0.60;0.60;;;21.70;62.90;;;;;;4963368;28;20035;-79
2023/08/06 08:15:47;;;;;;;0.00;0.00;;;20.40;66.10;;;;;;4962879;28;20274;-79
2023/08/06 08:18:13;;;;;;;0.23;0.23;;;22.50;62.40;;;;;;4962896;28;20487;-80
2023/08/06 08:20:38;;;;;;;0.00;0.00;;;21.50;62.40;;;;;;4961559;28;20792;-80
2023/08/06 08:23:04;;;;;;;0.00;0.00;;;26.30;57.80;;;;;;4963238;28;20577;-80
2023/08/06 08:25:31;;;;;;;0.00;0.00;;;27.60;50.30;;;;;;4962725;28;20578;-79
2023/08/06 08:27:57;;;;;;;1.10;0.75;;;24.80;53.30;;;;;;4962390;28;20118;-79
2023/08/06 08:30:24;;;;;;;0.50;0.43;;;24.80;52.40;;;;;;4962011;28;20032;-80
2023/08/06 08:32:50;;;;;;;0.50;0.47;;;22.70;57.60;;;;;;4965956;28;20030;-79
2023/08/06 08:35:16;;;;;;;0.08;0.08;;;21.40;61.10;;;;;;4962998;28;20082;-80
2023/08/06 08:37:43;;;;;;;0.00;0.00;;;20.70;63.30;;;;;;4963412;28;20070;-79
2023/08/06 08:40:09;;;;;;;0.38;0.38;;;20.10;65.10;;;;;;4963062;28;20018;-79
2023/08/06 08:42:36;;;;;;;;;;;20.00;66.00;;;;;;4961684;28;20026;-79
2023/08/06 08:45:02;;;;;;;;;;;21.30;63.10;;;;;;4964025;28;19965;-79
2023/08/06 08:47:28;;;;;;;0.00;0.00;;;21.60;61.40;;;;;;4963065;28;19914;-80
2023/08/06 08:49:57;;;;;;;0.00;0.00;;;21.20;61.20;;;;;;4964180;28;20037;-77
2023/08/06 08:52:25;;;;;;;5.47;0.98;;;20.30;61.40;;;;;;4961522;28;20313;-77
2023/08/06 08:54:52;;;;;;;0.00;0.00;;;20.30;62.90;;;;;;4962700;28;20027;-77
2023/08/06 08:57:19;;;;;;;1.27;0.90;;;21.70;63.20;;;;;;4963766;28;20839;-78
2023/08/06 08:59:45;;;;;;;0.00;0.00;;;26.80;54.40;;;;;;4963551;28;20030;-78
2023/08/06 09:02:14;;;;;;;0.00;0.00;;;29.80;49.30;;;;;;4962711;28;20108;-79
2023/08/06 09:04:40;;;;;;;0.00;0.00;;;29.60;45.40;;;;;;4963170;28;20062;-79
2023/08/06 09:07:10;;;;;;;0.00;0.00;;;30.10;45.60;;;;;;4964298;28;20031;-78
2023/08/06 09:09:39;;;;;;;0.00;0.00;;;31.10;43.80;;;;;;4963621;28;20394;-78
2023/08/06 09:12:15;;;;;;;0.00;0.00;;;31.80;43.10;;;;;;4962966;28;20038;-79
2023/08/06 09:14:41;;;;;;;0.28;0.28;;;31.40;40.70;;;;;;4961516;28;20565;-79
2023/08/06 09:17:07;;;;;;;0.10;0.10;;;32.00;42.70;;;;;;4962781;28;20038;-79
2023/08/06 09:19:33;;;;;;;;;;;31.70;42.40;;;;;;4961806;28;20027;-79
2023/08/06 09:21:59;;;;;;;0.10;0.10;;;30.40;42.70;;;;;;4961116;28;19929;-79
2023/08/06 09:24:26;;;;;;;;;;;29.00;43.40;;;;;;4955177;28;20038;-79
2023/08/06 09:26:52;;;;;;;0.00;0.00;;;31.40;42.30;;;;;;4960709;28;19985;-79
2023/08/06 09:29:17;;;;;;;;;;;32.80;40.40;;;;;;4963722;28;20701;-79
2023/08/06 09:31:53;;;;;;;0.10;0.10;;;30.50;40.40;;;;;;4962899;28;20569;-79
2023/08/06 09:34:21;;;;;;;0.00;0.00;;;27.30;46.30;;;;;;4960749;28;20716;-79
2023/08/06 09:36:50;;;;;;;0.00;0.00;;;29.60;46.20;;;;;;4966685;28;20126;-79
2023/08/06 09:39:18;;;;;;;0.00;0.00;;;29.20;47.20;;;;;;4966255;28;20073;-79
2023/08/06 09:41:44;;;;;;;0.00;0.00;;;31.30;43.20;;;;;;4966351;28;20074;-79
2023/08/06 09:44:21;;;;;;;0.20;0.20;;;31.20;41.20;;;;;;4965138;28;20066;-79
2023/08/06 09:46:48;;;;;;;0.00;0.00;;;27.90;44.50;;;;;;4963416;28;20034;-78
2023/08/06 09:49:15;;;;;;;0.45;0.32;;;26.10;46.20;;;;;;4965247;28;20043;-79
2023/08/06 09:51:41;;;;;;;0.00;0.00;;;26.30;49.80;;;;;;4965706;28;20034;-79
2023/08/06 09:54:07;;;;;;;;;;;30.40;41.00;;;;;;4966643;28;20058;-79
2023/08/06 09:56:37;;;;;;;0.03;0.03;;;32.00;41.00;;;;;;4966520;28;20024;-79
2023/08/06 09:59:06;;;;;;;0.80;0.65;;;31.50;40.10;;;;;;4966590;28;20147;-79
2023/08/06 10:01:33;;;;;;;0.00;0.00;;;32.50;39.90;;;;;;4965767;28;20038;-78
2023/08/06 10:04:01;;;;;;;0.10;0.10;;;30.80;42.80;;;;;;4965556;28;20026;-79
2023/08/06 10:06:27;;;;;;;0.10;0.10;;;31.90;39.30;;;;;;4956911;28;20039;-79
2023/08/06 10:08:52;;;;;;;1.75;0.40;;;34.00;38.50;;;;;;4966030;28;20054;-78
2023/08/06 10:11:21;;;;;;;0.00;0.00;;;32.50;36.90;;;;;;4964932;28;20538;-78
2023/08/06 10:13:48;;;;;;;1.38;0.65;;;28.20;41.90;;;;;;4964376;28;20031;-78
2023/08/06 10:16:14;;;;;;;0.43;0.43;;;26.40;45.20;;;;;;4964682;28;20031;-79
2023/08/06 10:18:41;;;;;;;0.00;0.00;;;24.50;47.70;;;;;;4959439;28;20077;-78
2023/08/06 10:21:09;;;;;;;0.00;0.00;;;23.00;52.10;;;;;;4968705;28;20054;-78
2023/08/06 10:23:37;;;;;;;0.00;0.00;;;24.10;50.30;;;;;;4959830;28;20046;-78
2023/08/06 10:26:03;;;;;;;0.00;0.00;;;22.50;53.00;;;;;;4964102;28;20106;-78
2023/08/06 10:28:37;;;;;;;0.00;0.00;;;22.00;54.90;;;;;;4959497;28;20137;-78
2023/08/06 10:31:06;;;;;;;3.33;0.90;;;23.30;52.80;;;;;;4964951;28;20085;-78
2023/08/06 10:34:01;;;;;;;0.30;0.30;;;23.60;54.00;;;;;;4965101;28;20039;-79
2023/08/06 10:36:27;;;;;;;1.30;0.37;;;26.50;47.00;;;;;;4956604;28;20070;-77
2023/08/06 10:38:53;;;;;;;0.20;0.20;;;27.30;45.40;;;;;;4965745;28;20054;-79
2023/08/06 10:41:27;;;;;;;0.00;0.00;;;26.40;42.30;;;;;;4965024;28;20285;-78
2023/08/06 10:44:04;;;;;;;0.45;0.45;;;25.40;46.80;;;;;;4965535;28;20030;-80
2023/08/06 10:46:30;;;;;;;0.00;0.00;;;24.50;48.00;;;;;;4961362;28;20027;-78
2023/08/06 10:48:56;;;;;;;1.80;0.73;;;23.50;50.10;;;;;;4959591;28;20513;-78
2023/08/06 10:51:22;;;;;;;0.35;0.28;;;23.10;51.70;;;;;;4958970;28;20613;-78
2023/08/06 10:53:49;;;;;;;0.00;0.00;;;23.30;51.70;;;;;;4957357;28;20061;-79
2023/08/06 10:56:22;;;;;;;0.00;0.00;;;22.90;52.40;;;;;;4959251;28;20030;-79
2023/08/06 10:58:49;;;;;;;0.25;0.25;;;22.20;52.70;;;;;;4961474;28;20035;-79
2023/08/06 11:01:15;;;;;;;0.00;0.00;;;22.20;52.50;;;;;;4972527;28;20061;-79
2023/08/06 11:03:46;;;;;;;0.32;0.32;;;22.50;52.10;;;;;;4960651;28;20035;-79
2023/08/06 11:06:18;;;;;;;0.00;0.00;;;22.70;52.50;;;;;;4958374;28;20618;-78
2023/08/06 11:08:50;;;;;;;25.95;0.85;;;23.70;52.10;;;;;;4958361;28;20019;-78
2023/08/06 11:11:17;;;;;;;0.00;0.00;;;24.00;51.00;;;;;;4956602;28;20035;-79
2023/08/06 11:13:50;;;;;;;0.35;0.35;;;23.60;52.10;;;;;;4961715;28;20858;-78
2023/08/06 11:16:26;;;;;;;0.00;0.00;;;22.50;51.90;;;;;;4962885;28;20844;-78
2023/08/06 11:18:53;;;;;;;0.00;0.00;;;22.50;53.30;;;;;;4958671;28;20031;-77
2023/08/06 11:21:24;;;;;;;0.00;0.00;;;22.70;52.80;;;;;;4960853;28;20035;-78
2023/08/06 11:23:51;;;;;;;0.00;0.00;;;23.10;51.20;;;;;;4964245;28;20068;-78
2023/08/06 11:26:23;;;;;;;0.00;0.00;;;23.50;51.30;;;;;;4963670;28;20035;-79
2023/08/06 11:28:49;;;;;;;0.00;0.00;;;24.00;51.10;;;;;;4961957;28;20451;-78
2023/08/06 11:31:21;;;;;;;;;;;24.00;51.70;;;;;;4958204;28;20031;-78
2023/08/06 11:33:47;;;;;;;0.43;0.43;;;24.00;51.10;;;;;;4956933;28;19918;-78
2023/08/06 11:36:13;;;;;;;0.00;0.00;;;23.80;50.80;;;;;;4970587;28;20708;-79
2023/08/06 11:38:39;;;;;;;0.20;0.20;;;23.20;50.30;;;;;;4957181;28;20133;-79
2023/08/06 11:41:07;;;;;;;0.00;0.00;;;23.40;51.20;;;;;;4962982;28;20542;-78
2023/08/06 11:43:32;;;;;;;0.10;0.10;;;23.80;51.30;;;;;;4963599;28;20169;-79
2023/08/06 11:46:00;;;;;;;0.00;0.00;;;22.50;51.80;;;;;;4961542;28;20027;-79
2023/08/06 11:48:26;;;;;;;0.00;0.00;;;22.40;51.40;;;;;;4959571;28;20089;-79
2023/08/06 11:50:54;;;;;;;0.00;0.00;;;23.10;53.20;;;;;;4954457;28;20038;-79
2023/08/06 11:53:20;;;;;;;0.00;0.00;;;23.20;53.00;;;;;;4960011;28;20085;-78
2023/08/06 11:55:46;;;;;;;0.07;0.07;;;23.40;51.60;;;;;;4961846;28;21133;-78
2023/08/06 11:58:12;;;;;;;0.63;0.63;;;23.50;51.50;;;;;;4964425;28;20552;-79
2023/08/06 12:00:38;;;;;;;0.00;0.00;;;23.30;50.80;;;;;;4965380;28;20286;-79
2023/08/06 12:03:05;;;;;;;0.00;0.00;;;22.90;50.30;;;;;;4962367;28;20248;-79
2023/08/06 12:05:33;;;;;;;0.10;0.10;;;22.90;51.30;;;;;;4962562;28;20110;-79
2023/08/06 12:08:00;;;;;;;0.00;0.00;;;23.30;51.20;;;;;;4962874;28;20053;-79
2023/08/06 12:10:28;;;;;;;0.10;0.10;;;23.50;50.80;;;;;;4963158;28;20675;-79
2023/08/06 12:12:54;;;;;;;0.00;0.00;;;23.50;50.50;;;;;;4962673;28;20031;-78
2023/08/06 12:15:20;;;;;;;1.08;0.47;;;23.10;52.10;;;;;;4962888;28;20074;-79
2023/08/06 12:17:46;;;;;;;0.03;0.03;;;23.00;52.60;;;;;;4962436;28;20031;-79
2023/08/06 12:20:12;;;;;;;0.00;0.00;;;23.80;51.50;;;;;;4969846;28;20388;-79
2023/08/06 12:22:39;;;;;;;0.38;0.05;;;23.80;52.10;;;;;;4962633;28;20521;-79
2023/08/06 12:25:07;;;;;;;0.00;0.00;;;23.80;52.70;;;;;;4959765;28;20104;-79
2023/08/06 12:27:34;;;;;;;0.00;0.00;;;23.60;51.80;;;;;;4962351;28;20042;-79
2023/08/06 12:30:00;;;;;;;0.20;0.20;;;23.00;52.20;;;;;;4960386;28;20090;-79
2023/08/06 12:32:26;;;;;;;0.27;0.20;;;23.00;52.70;;;;;;4957937;28;20035;-78
2023/08/06 12:34:52;;;;;;;0.00;0.00;;;23.50;53.00;;;;;;4962103;28;20558;-78
2023/08/06 12:37:17;;;;;;;0.00;0.00;;;23.80;52.80;;;;;;4962812;28;20038;-79
2023/08/06 12:39:43;;;;;;;0.00;0.00;;;23.60;53.30;;;;;;4963503;28;20065;-78
2023/08/06 12:42:10;;;;;;;0.40;0.40;;;23.20;51.90;;;;;;4963680;28;20081;-83
2023/08/06 12:44:36;;;;;;;0.00;0.00;;;22.60;51.60;;;;;;4963232;28;20030;-80
2023/08/06 12:47:02;;;;;;;0.00;0.00;;;22.40;51.60;;;;;;4963063;28;20174;-80